createdAt,value
2017-08-09T00:01:28.670Z,83.44
2017-08-09T00:04:03.512Z,83.57
2017-08-09T00:06:38.436Z,83.92
2017-08-09T00:09:13.405Z,84.12
2017-08-09T00:11:49.135Z,84.73
2017-08-09T00:14:24.584Z,84.37
2017-08-09T00:16:59.287Z,84.31
2017-08-09T00:19:35.133Z,84.11
2017-08-09T00:22:09.788Z,83.88
2017-08-09T00:24:44.518Z,83.98
2017-08-09T00:27:19.232Z,83.98
2017-08-09T00:29:53.953Z,84.25
2017-08-09T00:32:28.781Z,83.68
2017-08-09T00:35:03.544Z,83.80
2017-08-09T00:37:38.336Z,84.31
2017-08-09T00:40:13.099Z,84.28
2017-08-09T00:42:48.145Z,84.44
2017-08-09T00:45:22.675Z,84.84
2017-08-09T00:47:57.415Z,85.05
2017-08-09T00:50:33.124Z,85.16
2017-08-09T00:53:07.865Z,84.98
2017-08-09T00:55:42.625Z,85.37
2017-08-09T00:58:17.331Z,85.45
2017-08-09T01:00:51.902Z,85.58
2017-08-09T01:03:26.681Z,85.46
2017-08-09T01:06:01.379Z,85.51
2017-08-09T01:08:36.095Z,85.66
2017-08-09T01:11:11.740Z,85.77
2017-08-09T01:13:46.404Z,85.97
2017-08-09T01:16:21.460Z,85.98
2017-08-09T01:18:56.749Z,86.02
2017-08-09T01:21:30.938Z,86.00
2017-08-09T01:24:05.943Z,85.79
2017-08-09T01:26:40.648Z,86.02
2017-08-09T01:29:15.361Z,85.83
2017-08-09T01:31:50.024Z,85.93
2017-08-09T01:34:24.813Z,85.97
2017-08-09T01:37:00.459Z,85.75
2017-08-09T01:39:35.116Z,85.81
2017-08-09T01:42:09.863Z,85.67
2017-08-09T01:44:44.453Z,85.32
2017-08-09T01:47:19.149Z,85.45
2017-08-09T01:49:53.417Z,85.46
2017-08-09T01:52:27.989Z,85.44
2017-08-09T01:55:02.550Z,85.40
2017-08-09T01:57:37.528Z,85.44
2017-08-09T02:00:11.940Z,85.09
2017-08-09T02:02:46.460Z,85.12
2017-08-09T02:05:21.008Z,85.32
2017-08-09T02:07:55.944Z,85.42
2017-08-09T02:10:30.598Z,85.15
2017-08-09T02:13:05.318Z,85.07
2017-08-09T02:15:40.978Z,85.06
2017-08-09T02:18:16.623Z,85.38
2017-08-09T02:20:51.359Z,85.36
2017-08-09T02:23:25.982Z,85.34
2017-08-09T02:26:00.721Z,85.53
2017-08-09T02:28:35.360Z,85.83
2017-08-09T02:31:09.990Z,86.17
2017-08-09T02:33:45.677Z,86.08
2017-08-09T02:36:20.282Z,85.92
2017-08-09T02:38:54.988Z,85.68
2017-08-09T02:41:29.696Z,85.83
2017-08-09T02:44:05.396Z,85.86
2017-08-09T02:46:40.052Z,86.15
2017-08-09T02:49:14.730Z,86.03
2017-08-09T02:51:49.231Z,85.46
2017-08-09T02:54:24.858Z,85.04
2017-08-09T02:56:59.511Z,84.74
2017-08-09T02:59:34.151Z,84.78
2017-08-09T03:02:09.901Z,84.50
2017-08-09T03:04:44.533Z,84.55
2017-08-09T03:07:19.247Z,84.81
2017-08-09T03:09:54.062Z,85.27
2017-08-09T03:12:29.611Z,85.03
2017-08-09T03:15:04.295Z,84.97
2017-08-09T03:17:39.905Z,84.72
2017-08-09T03:20:15.106Z,84.13
2017-08-09T03:22:50.247Z,84.20
2017-08-09T03:25:24.862Z,84.58
2017-08-09T03:27:59.532Z,84.39
2017-08-09T03:30:34.125Z,84.23
2017-08-09T03:33:08.691Z,83.72
2017-08-09T03:35:43.423Z,83.58
2017-08-09T03:38:18.134Z,83.60
2017-08-09T03:40:52.916Z,83.45
2017-08-09T03:43:27.565Z,83.61
2017-08-09T03:46:02.204Z,83.73
2017-08-09T03:48:36.951Z,83.77
2017-08-09T03:51:11.715Z,83.42
2017-08-09T03:53:47.435Z,83.84
2017-08-09T03:56:22.175Z,83.83
2017-08-09T03:58:56.991Z,84.19
2017-08-09T04:01:32.499Z,84.42
2017-08-09T04:04:07.094Z,84.51
2017-08-09T04:06:41.865Z,84.55
2017-08-09T04:09:16.536Z,85.04
2017-08-09T04:11:51.152Z,84.85
2017-08-09T04:14:25.859Z,84.84
2017-08-09T04:17:00.620Z,84.61
2017-08-09T04:19:35.515Z,84.76
2017-08-09T04:22:10.262Z,84.31
2017-08-09T04:24:44.799Z,84.44
2017-08-09T04:27:19.466Z,84.32
2017-08-09T04:29:54.189Z,84.22
2017-08-09T04:32:29.990Z,84.36
2017-08-09T04:35:04.739Z,84.04
2017-08-09T04:37:39.368Z,83.82
2017-08-09T04:40:13.971Z,83.27
2017-08-09T04:42:48.625Z,83.19
2017-08-09T04:45:24.246Z,82.94
2017-08-09T04:47:58.986Z,82.90
2017-08-09T04:50:33.567Z,82.83
2017-08-09T04:53:09.195Z,82.67
2017-08-09T04:55:43.887Z,82.83
2017-08-09T04:58:18.523Z,82.84
2017-08-09T05:00:53.247Z,83.42
2017-08-09T05:03:27.992Z,83.72
2017-08-09T05:06:02.711Z,84.07
2017-08-09T05:08:37.343Z,84.45
2017-08-09T05:11:11.968Z,84.33
2017-08-09T05:13:46.698Z,84.37
2017-08-09T05:16:21.219Z,84.21
2017-08-09T05:18:55.956Z,84.10
2017-08-09T05:21:31.584Z,83.63
2017-08-09T05:24:07.007Z,83.80
2017-08-09T05:26:41.855Z,83.60
2017-08-09T05:29:16.580Z,83.75
2017-08-09T05:31:51.950Z,83.28
2017-08-09T05:34:27.087Z,82.93
2017-08-09T05:37:01.787Z,82.45
2017-08-09T05:39:36.394Z,82.76
2017-08-09T05:42:11.027Z,82.47
2017-08-09T05:44:45.739Z,81.96
2017-08-09T05:47:20.387Z,81.67
2017-08-09T05:49:55.235Z,81.79
2017-08-09T05:52:30.072Z,81.95
2017-08-09T05:55:04.913Z,81.74
2017-08-09T05:57:40.653Z,81.79
2017-08-09T06:00:16.018Z,81.19
2017-08-09T06:02:50.762Z,81.52
2017-08-09T06:05:25.451Z,81.13
2017-08-09T06:08:00.395Z,80.99
2017-08-09T06:10:35.067Z,81.70
2017-08-09T06:13:09.595Z,81.40
2017-08-09T06:15:44.278Z,80.56
2017-08-09T06:18:19.003Z,80.49
2017-08-09T06:20:53.679Z,80.55
2017-08-09T06:23:28.137Z,80.08
2017-08-09T06:26:02.907Z,80.69
2017-08-09T06:28:37.742Z,80.51
2017-08-09T06:31:12.344Z,79.98
2017-08-09T06:33:47.904Z,80.06
2017-08-09T06:36:22.542Z,79.35
2017-08-09T06:38:57.175Z,79.95
2017-08-09T06:41:31.773Z,79.92
2017-08-09T06:44:07.606Z,79.57
2017-08-09T06:46:42.267Z,79.29
2017-08-09T06:49:17.928Z,78.72
2017-08-09T06:51:52.544Z,78.02
2017-08-09T06:54:27.347Z,77.79
2017-08-09T06:57:02.236Z,76.69
2017-08-09T06:59:37.166Z,76.37
2017-08-09T07:02:11.584Z,75.77
2017-08-09T07:04:46.235Z,76.36
2017-08-09T07:07:20.988Z,76.68
2017-08-09T07:09:55.715Z,77.70
2017-08-09T07:12:29.991Z,78.05
2017-08-09T07:15:05.907Z,77.74
2017-08-09T07:17:40.548Z,77.74
2017-08-09T07:20:15.234Z,78.28
2017-08-09T07:22:49.984Z,78.22
2017-08-09T07:25:24.643Z,77.76
2017-08-09T07:27:59.363Z,76.45
2017-08-09T07:30:34.094Z,76.85
2017-08-09T07:33:08.819Z,77.46
2017-08-09T07:35:43.685Z,77.47
2017-08-09T07:38:18.551Z,76.99
2017-08-09T07:40:53.412Z,76.78
2017-08-09T07:43:28.108Z,77.22
2017-08-09T07:46:02.938Z,76.84
2017-08-09T07:48:37.726Z,76.97
2017-08-09T07:51:12.480Z,76.77
2017-08-09T07:53:47.144Z,77.63
2017-08-09T07:56:21.879Z,77.47
2017-08-09T07:58:56.622Z,77.94
2017-08-09T08:01:32.235Z,78.00
2017-08-09T08:04:06.815Z,77.89
2017-08-09T08:06:42.414Z,78.35
2017-08-09T08:09:18.155Z,77.74
2017-08-09T08:11:52.755Z,76.99
2017-08-09T08:14:27.547Z,77.22
2017-08-09T08:17:03.183Z,77.55
2017-08-09T08:19:38.950Z,76.80
2017-08-09T08:22:13.762Z,77.50
2017-08-09T08:24:48.408Z,78.64
2017-08-09T08:27:23.018Z,78.93
2017-08-09T08:29:57.843Z,79.62
2017-08-09T08:32:32.459Z,79.38
2017-08-09T08:35:07.256Z,80.19
2017-08-09T08:37:41.892Z,79.96
2017-08-09T08:40:17.150Z,79.71
2017-08-09T08:42:52.314Z,79.09
2017-08-09T08:45:26.694Z,78.25
2017-08-09T08:48:01.552Z,78.20
2017-08-09T08:50:36.279Z,77.67
2017-08-09T08:53:10.936Z,76.96
2017-08-09T08:55:45.757Z,76.03
2017-08-09T08:58:20.302Z,75.32
2017-08-09T09:00:54.916Z,72.44
2017-08-09T09:03:29.804Z,72.88
2017-08-09T09:06:04.599Z,71.10
2017-08-09T09:08:39.308Z,70.15
2017-08-09T09:11:15.089Z,69.55
2017-08-09T09:13:49.764Z,68.31
2017-08-09T09:16:25.428Z,67.50
2017-08-09T09:19:00.243Z,65.67
2017-08-09T09:21:35.043Z,65.74
2017-08-09T09:24:09.800Z,66.12
2017-08-09T09:26:44.400Z,64.83
2017-08-09T09:29:19.288Z,63.86
2017-08-09T09:31:54.053Z,64.02
2017-08-09T09:34:28.759Z,61.86
2017-08-09T09:37:04.556Z,62.39
2017-08-09T09:39:39.291Z,61.88
2017-08-09T09:42:14.044Z,61.86
2017-08-09T09:44:48.804Z,60.75
2017-08-09T09:47:23.463Z,60.66
2017-08-09T09:49:59.225Z,60.83
2017-08-09T09:52:34.994Z,61.46
2017-08-09T09:55:09.744Z,60.87
2017-08-09T09:57:45.560Z,60.38
2017-08-09T10:00:20.194Z,61.27
2017-08-09T10:02:54.826Z,61.45
2017-08-09T10:05:29.550Z,61.24
2017-08-09T10:08:04.338Z,59.22
2017-08-09T10:10:39.041Z,59.64
2017-08-09T10:13:13.778Z,59.63
2017-08-09T10:15:48.475Z,60.31
2017-08-09T10:18:23.314Z,61.21
2017-08-09T10:20:58.005Z,60.97
2017-08-09T10:23:33.714Z,60.97
2017-08-09T10:26:08.514Z,58.96
2017-08-09T10:28:43.277Z,59.64
2017-08-09T10:31:18.011Z,61.02
2017-08-09T10:33:53.822Z,59.80
2017-08-09T10:36:28.435Z,60.08
2017-08-09T10:39:02.984Z,60.30
2017-08-09T10:41:37.899Z,59.21
2017-08-09T10:44:12.660Z,58.19
2017-08-09T10:46:47.373Z,57.36
2017-08-09T10:49:22.090Z,56.93
2017-08-09T10:51:57.636Z,54.15
2017-08-09T10:54:32.198Z,55.69
2017-08-09T10:57:06.782Z,56.01
2017-08-09T10:59:41.587Z,55.63
2017-08-09T11:02:16.348Z,54.95
2017-08-09T11:04:51.044Z,54.90
2017-08-09T11:07:25.703Z,54.30
2017-08-09T11:10:01.347Z,52.05
2017-08-09T11:12:36.077Z,54.01
2017-08-09T11:15:10.820Z,53.44
2017-08-09T11:17:45.448Z,53.24
2017-08-09T11:20:22.202Z,52.85
2017-08-09T11:22:56.928Z,53.02
2017-08-09T11:25:31.595Z,54.54
2017-08-09T11:28:06.231Z,53.85
2017-08-09T11:30:40.774Z,55.03
2017-08-09T11:33:15.389Z,54.52
2017-08-09T11:35:50.064Z,53.98
2017-08-09T11:38:24.779Z,53.96
2017-08-09T11:41:00.442Z,52.94
2017-08-09T11:43:35.330Z,53.98
2017-08-09T11:46:09.971Z,51.36
2017-08-09T11:48:44.736Z,50.81
2017-08-09T11:51:19.502Z,50.23
2017-08-09T11:53:54.290Z,50.12
2017-08-09T11:56:29.943Z,52.19
2017-08-09T11:59:04.592Z,52.70
2017-08-09T12:01:39.079Z,52.87
2017-08-09T12:04:15.987Z,53.34
2017-08-09T12:06:50.702Z,52.50
2017-08-09T12:09:25.379Z,54.46
2017-08-09T12:12:00.087Z,53.44
2017-08-09T12:14:34.811Z,52.92
2017-08-09T12:17:09.787Z,53.41
2017-08-09T12:19:45.195Z,52.46
2017-08-09T12:22:19.919Z,50.79
2017-08-09T12:24:54.852Z,49.83
2017-08-09T12:27:29.575Z,48.22
2017-08-09T12:30:04.227Z,47.60
2017-08-09T12:32:38.916Z,47.92
2017-08-09T12:35:14.679Z,45.66
2017-08-09T12:37:49.400Z,46.53
2017-08-09T12:40:23.810Z,47.05
2017-08-09T12:42:58.523Z,47.03
2017-08-09T12:45:33.164Z,47.88
2017-08-09T12:48:08.535Z,48.54
2017-08-09T12:50:44.566Z,48.09
2017-08-09T12:53:19.158Z,48.57
2017-08-09T12:55:53.883Z,48.14
2017-08-09T12:58:29.400Z,47.17
2017-08-09T13:01:05.020Z,46.33
2017-08-09T13:03:40.609Z,45.05
2017-08-09T13:06:16.227Z,45.22
2017-08-09T13:08:50.959Z,45.20
2017-08-09T13:11:25.488Z,45.46
2017-08-09T13:14:01.310Z,45.68
2017-08-09T13:16:36.013Z,45.92
2017-08-09T13:19:11.619Z,44.40
2017-08-09T13:21:46.376Z,45.20
2017-08-09T13:24:21.095Z,44.99
2017-08-09T13:26:55.755Z,45.25
2017-08-09T13:29:30.319Z,46.23
2017-08-09T13:32:04.832Z,46.44
2017-08-09T13:34:40.599Z,45.58
2017-08-09T13:37:15.264Z,45.57
2017-08-09T13:39:49.835Z,47.21
2017-08-09T13:42:24.472Z,46.56
2017-08-09T13:44:59.048Z,45.97
2017-08-09T13:47:33.653Z,43.70
2017-08-09T13:50:09.415Z,44.68
2017-08-09T13:52:43.962Z,44.94
2017-08-09T13:55:18.567Z,43.58
2017-08-09T13:57:53.248Z,43.59
2017-08-09T14:00:28.683Z,43.09
2017-08-09T14:03:03.028Z,42.24
2017-08-09T14:05:37.750Z,42.25
2017-08-09T14:08:12.387Z,43.25
2017-08-09T14:10:47.035Z,44.99
2017-08-09T14:13:21.738Z,45.56
2017-08-09T14:15:56.297Z,44.35
2017-08-09T14:18:30.899Z,43.87
2017-08-09T14:21:05.443Z,42.43
2017-08-09T14:23:40.047Z,43.28
2017-08-09T14:26:15.550Z,44.29
2017-08-09T14:28:50.344Z,46.12
2017-08-09T14:31:25.970Z,46.43
2017-08-09T14:34:00.644Z,46.87
2017-08-09T14:36:35.324Z,46.49
2017-08-09T14:39:09.912Z,46.39
2017-08-09T14:41:45.656Z,42.84
2017-08-09T14:44:20.252Z,45.11
2017-08-09T14:46:56.042Z,45.19
2017-08-09T14:49:30.512Z,44.50
2017-08-09T14:52:05.239Z,44.40
2017-08-09T14:54:39.568Z,44.02
2017-08-09T14:57:14.643Z,45.16
2017-08-09T14:59:50.027Z,45.89
2017-08-09T15:02:24.618Z,45.68
2017-08-09T15:04:59.163Z,45.38
2017-08-09T15:07:33.812Z,45.42
2017-08-09T15:10:08.321Z,45.35
2017-08-09T15:12:43.961Z,45.59
2017-08-09T15:15:18.556Z,46.13
2017-08-09T15:17:53.321Z,46.16
2017-08-09T15:20:27.908Z,45.68
2017-08-09T15:23:02.606Z,45.30
2017-08-09T15:25:38.239Z,45.63
2017-08-09T15:28:12.948Z,46.21
2017-08-09T15:30:47.596Z,46.02
2017-08-09T15:33:22.411Z,46.96
2017-08-09T15:35:57.008Z,46.84
2017-08-09T15:38:31.679Z,46.38
2017-08-09T15:41:05.834Z,47.17
2017-08-09T15:43:40.832Z,46.67
2017-08-09T15:46:15.448Z,46.77
2017-08-09T15:48:49.975Z,47.88
2017-08-09T15:51:24.694Z,46.98
2017-08-09T15:53:59.430Z,46.75
2017-08-09T15:56:34.151Z,46.50
2017-08-09T15:59:08.774Z,45.45
2017-08-09T16:01:43.330Z,45.54
2017-08-09T16:04:17.939Z,43.94
2017-08-09T16:06:52.649Z,43.69
2017-08-09T16:09:27.395Z,44.98
2017-08-09T16:12:01.910Z,44.77
2017-08-09T16:14:37.503Z,43.34
2017-08-09T16:17:12.195Z,43.72
2017-08-09T16:19:47.835Z,44.72
2017-08-09T16:22:22.596Z,42.67
2017-08-09T16:24:57.404Z,43.58
2017-08-09T16:27:32.023Z,43.00
2017-08-09T16:30:07.668Z,42.88
2017-08-09T16:32:43.433Z,41.90
2017-08-09T16:35:18.108Z,42.46
2017-08-09T16:37:52.716Z,42.08
2017-08-09T16:40:27.364Z,42.36
2017-08-09T16:43:02.080Z,41.48
2017-08-09T16:45:37.796Z,42.61
2017-08-09T16:48:12.058Z,42.74
2017-08-09T16:50:46.927Z,42.27
2017-08-09T16:53:21.662Z,42.66
2017-08-09T16:55:56.339Z,43.13
2017-08-09T16:58:30.966Z,43.35
2017-08-09T17:01:05.595Z,43.67
2017-08-09T17:03:40.266Z,43.73
2017-08-09T17:06:15.573Z,44.17
2017-08-09T17:08:51.482Z,44.15
2017-08-09T17:11:26.232Z,44.96
2017-08-09T17:14:00.560Z,44.95
2017-08-09T17:16:35.329Z,44.86
2017-08-09T17:19:11.018Z,45.08
2017-08-09T17:21:45.645Z,45.58
2017-08-09T17:24:20.269Z,45.65
2017-08-09T17:26:54.879Z,46.08
2017-08-09T17:29:29.509Z,45.55
2017-08-09T17:32:04.175Z,45.69
2017-08-09T17:34:38.866Z,46.13
2017-08-09T17:37:13.407Z,45.99
2017-08-09T17:39:48.023Z,46.55
2017-08-09T17:42:22.775Z,46.60
2017-08-09T17:44:57.450Z,46.81
2017-08-09T17:47:32.120Z,46.32
2017-08-09T17:50:07.906Z,47.10
2017-08-09T17:52:42.492Z,47.04
2017-08-09T17:55:17.222Z,47.09
2017-08-09T17:57:51.922Z,47.41
2017-08-09T18:00:26.670Z,46.51
2017-08-09T18:03:01.469Z,46.92
2017-08-09T18:05:36.215Z,47.23
2017-08-09T18:08:10.836Z,47.14
2017-08-09T18:10:45.472Z,47.54
2017-08-09T18:13:20.195Z,47.61
2017-08-09T18:15:54.955Z,47.44
2017-08-09T18:18:29.646Z,47.57
2017-08-09T18:21:04.320Z,47.84
2017-08-09T18:23:38.859Z,47.93
2017-08-09T18:26:13.473Z,47.82
2017-08-09T18:28:48.015Z,48.03
2017-08-09T18:31:22.777Z,48.46
2017-08-09T18:33:57.529Z,48.69
2017-08-09T18:36:32.227Z,48.88
2017-08-09T18:39:06.874Z,49.19
2017-08-09T18:41:41.392Z,49.50
2017-08-09T18:44:16.131Z,49.86
2017-08-09T18:46:50.714Z,50.07
2017-08-09T18:49:25.352Z,49.93
2017-08-09T18:52:00.084Z,50.04
2017-08-09T18:54:34.723Z,50.10
2017-08-09T18:57:09.331Z,50.15
2017-08-09T18:59:43.998Z,50.32
2017-08-09T19:02:18.720Z,50.65
2017-08-09T19:04:53.274Z,50.95
2017-08-09T19:07:29.063Z,51.59
2017-08-09T19:10:03.438Z,52.18
2017-08-09T19:12:39.859Z,52.85
2017-08-09T19:15:15.208Z,53.45
2017-08-09T19:17:51.038Z,54.41
2017-08-09T19:20:25.658Z,55.27
2017-08-09T19:23:00.318Z,55.54
2017-08-09T19:25:36.182Z,55.65
2017-08-09T19:28:10.839Z,56.21
2017-08-09T19:30:46.461Z,57.24
2017-08-09T19:33:21.011Z,56.90
2017-08-09T19:35:55.628Z,56.70
2017-08-09T19:38:30.284Z,56.87
2017-08-09T19:41:04.911Z,57.02
2017-08-09T19:43:39.598Z,57.24
2017-08-09T19:46:14.323Z,57.55
2017-08-09T19:48:48.839Z,57.91
2017-08-09T19:51:23.599Z,58.87
2017-08-09T19:53:58.278Z,58.53
2017-08-09T19:56:32.879Z,58.43
2017-08-09T19:59:07.526Z,58.83
2017-08-09T20:01:42.291Z,59.21
2017-08-09T20:04:17.059Z,59.20
2017-08-09T20:06:51.735Z,59.18
2017-08-09T20:09:26.567Z,59.58
2017-08-09T20:12:01.107Z,60.01
2017-08-09T20:14:35.643Z,60.39
2017-08-09T20:17:10.455Z,60.36
2017-08-09T20:19:45.074Z,60.64
2017-08-09T20:22:19.739Z,61.07
2017-08-09T20:24:54.334Z,61.49
2017-08-09T20:27:28.589Z,62.06
2017-08-09T20:30:03.427Z,62.21
2017-08-09T20:32:38.046Z,62.74
2017-08-09T20:35:12.727Z,62.57
2017-08-09T20:37:47.698Z,62.79
2017-08-09T20:40:22.135Z,63.43
2017-08-09T20:42:57.117Z,63.14
2017-08-09T20:45:32.487Z,63.26
2017-08-09T20:48:07.226Z,63.51
2017-08-09T20:50:41.939Z,63.78
2017-08-09T20:53:17.875Z,64.25
2017-08-09T20:55:52.398Z,64.21
2017-08-09T20:58:26.947Z,64.11
2017-08-09T21:01:01.660Z,64.08
2017-08-09T21:03:36.007Z,64.00
2017-08-09T21:06:11.119Z,63.98
2017-08-09T21:08:45.742Z,64.14
2017-08-09T21:11:20.335Z,64.43
2017-08-09T21:13:55.023Z,64.83
2017-08-09T21:16:29.647Z,64.89
2017-08-09T21:19:04.256Z,65.33
2017-08-09T21:21:38.987Z,65.76
2017-08-09T21:24:14.622Z,66.57
2017-08-09T21:26:49.350Z,67.69
2017-08-09T21:29:24.092Z,67.66
2017-08-09T21:31:58.826Z,67.82
2017-08-09T21:34:33.634Z,68.33
2017-08-09T21:37:09.407Z,68.56
2017-08-09T21:39:44.024Z,68.86
2017-08-09T21:42:18.641Z,68.95
2017-08-09T21:44:53.433Z,68.90
2017-08-09T21:47:27.852Z,68.60
2017-08-09T21:50:03.474Z,68.64
2017-08-09T21:52:39.114Z,68.82
2017-08-09T21:55:14.940Z,68.87
2017-08-09T21:57:49.579Z,69.04
2017-08-09T22:00:24.161Z,69.22
2017-08-09T22:02:58.691Z,69.38
2017-08-09T22:05:33.334Z,69.82
2017-08-09T22:08:08.689Z,70.14
2017-08-09T22:10:43.735Z,70.86
2017-08-09T22:13:18.340Z,70.86
2017-08-09T22:15:52.976Z,71.13
2017-08-09T22:18:27.611Z,70.91
2017-08-09T22:21:02.232Z,70.88
2017-08-09T22:23:36.876Z,70.70
2017-08-09T22:26:11.491Z,70.53
2017-08-09T22:28:46.135Z,70.65
2017-08-09T22:31:20.847Z,70.69
2017-08-09T22:33:55.579Z,70.95
2017-08-09T22:36:29.968Z,71.25
2017-08-09T22:39:04.275Z,71.43
2017-08-09T22:41:39.256Z,71.45
2017-08-09T22:44:13.871Z,71.78
2017-08-09T22:46:48.705Z,71.93
2017-08-09T22:49:23.236Z,72.15
2017-08-09T22:51:57.744Z,72.12
2017-08-09T22:54:32.501Z,72.05
2017-08-09T22:57:07.118Z,72.55
2017-08-09T22:59:41.876Z,72.93
2017-08-09T23:02:17.391Z,72.84
2017-08-09T23:04:52.064Z,73.34
2017-08-09T23:07:26.732Z,73.90
2017-08-09T23:10:01.279Z,73.79
2017-08-09T23:12:36.029Z,73.87
2017-08-09T23:15:10.779Z,73.79
2017-08-09T23:17:45.436Z,73.77
2017-08-09T23:20:21.199Z,73.61
2017-08-09T23:22:55.912Z,73.98
2017-08-09T23:25:30.423Z,74.18
2017-08-09T23:28:05.114Z,73.98
2017-08-09T23:30:39.792Z,75.20
2017-08-09T23:33:14.595Z,75.56
2017-08-09T23:35:49.304Z,75.36
2017-08-09T23:38:24.107Z,75.50
2017-08-09T23:40:58.726Z,75.37
2017-08-09T23:43:33.345Z,75.03
2017-08-09T23:46:07.968Z,74.87
2017-08-09T23:48:42.718Z,74.91
2017-08-09T23:51:17.482Z,74.81
2017-08-09T23:53:53.302Z,74.77
2017-08-09T23:56:27.959Z,74.61
2017-08-09T23:59:02.792Z,74.87
